sensor_id;sensor_type;location;lat;lon;timestamp;temperature;humidity
48836;DHT22;62581;47.342;7.908;2022-11-20T00:03:28;6.90;99.90
48836;DHT22;62581;47.342;7.908;2022-11-20T00:05:59;6.90;99.90
48836;DHT22;62581;47.342;7.908;2022-11-20T00:08:28;6.90;99.90
48836;DHT22;62581;47.342;7.908;2022-11-20T00:10:55;6.90;99.90
48836;DHT22;62581;47.342;7.908;2022-11-20T00:13:24;6.90;99.90
48836;DHT22;62581;47.342;7.908;2022-11-20T00:15:56;6.90;99.90
48836;DHT22;62581;47.342;7.908;2022-11-20T00:18:30;6.90;99.90
48836;DHT22;62581;47.342;7.908;2022-11-20T00:21:00;6.90;99.90
48836;DHT22;62581;47.342;7.908;2022-11-20T00:23:27;6.90;99.90
48836;DHT22;62581;47.342;7.908;2022-11-20T00:25:53;6.90;99.90
48836;DHT22;62581;47.342;7.908;2022-11-20T00:28:20;6.90;99.90
48836;DHT22;62581;47.342;7.908;2022-11-20T00:30:47;7.00;99.90
48836;DHT22;62581;47.342;7.908;2022-11-20T00:33:14;7.00;99.90
48836;DHT22;62581;47.342;7.908;2022-11-20T00:35:42;7.00;99.90
48836;DHT22;62581;47.342;7.908;2022-11-20T00:38:09;7.00;99.90
48836;DHT22;62581;47.342;7.908;2022-11-20T00:40:36;7.10;99.90
48836;DHT22;62581;47.342;7.908;2022-11-20T00:43:04;7.00;99.90
48836;DHT22;62581;47.342;7.908;2022-11-20T00:45:31;7.10;99.90
48836;DHT22;62581;47.342;7.908;2022-11-20T00:47:58;7.10;99.90
48836;DHT22;62581;47.342;7.908;2022-11-20T00:50:31;7.10;99.90
48836;DHT22;62581;47.342;7.908;2022-11-20T00:52:59;7.00;99.90
48836;DHT22;62581;47.342;7.908;2022-11-20T00:55:31;7.00;99.90
48836;DHT22;62581;47.342;7.908;2022-11-20T00:57:57;7.00;99.90
48836;DHT22;62581;47.342;7.908;2022-11-20T01:00:24;7.00;99.90
48836;DHT22;62581;47.342;7.908;2022-11-20T01:02:51;7.00;99.90
48836;DHT22;62581;47.342;7.908;2022-11-20T01:05:20;6.90;99.90
48836;DHT22;62581;47.342;7.908;2022-11-20T01:07:51;6.90;99.90
48836;DHT22;62581;47.342;7.908;2022-11-20T01:10:26;6.80;99.90
48836;DHT22;62581;47.342;7.908;2022-11-20T01:12:56;6.90;99.90
48836;DHT22;62581;47.342;7.908;2022-11-20T01:15:39;6.90;99.90
48836;DHT22;62581;47.342;7.908;2022-11-20T01:18:06;6.90;99.90
48836;DHT22;62581;47.342;7.908;2022-11-20T01:20:34;6.80;99.90
48836;DHT22;62581;47.342;7.908;2022-11-20T01:23:00;6.90;99.90
48836;DHT22;62581;47.342;7.908;2022-11-20T01:25:31;7.00;99.90
48836;DHT22;62581;47.342;7.908;2022-11-20T01:28:06;7.00;99.90
48836;DHT22;62581;47.342;7.908;2022-11-20T01:30:33;7.10;99.90
48836;DHT22;62581;47.342;7.908;2022-11-20T01:33:00;7.10;99.90
48836;DHT22;62581;47.342;7.908;2022-11-20T01:35:26;7.10;99.90
48836;DHT22;62581;47.342;7.908;2022-11-20T01:37:53;7.10;99.90
48836;DHT22;62581;47.342;7.908;2022-11-20T01:40:22;7.00;99.90
48836;DHT22;62581;47.342;7.908;2022-11-20T01:42:53;7.00;99.90
48836;DHT22;62581;47.342;7.908;2022-11-20T01:45:56;7.00;99.90
48836;DHT22;62581;47.342;7.908;2022-11-20T01:48:25;7.00;99.90
48836;DHT22;62581;47.342;7.908;2022-11-20T01:50:53;7.10;99.90
48836;DHT22;62581;47.342;7.908;2022-11-20T01:53:31;7.10;99.90
48836;DHT22;62581;47.342;7.908;2022-11-20T01:55:59;7.10;99.90
48836;DHT22;62581;47.342;7.908;2022-11-20T01:58:35;7.10;99.90
48836;DHT22;62581;47.342;7.908;2022-11-20T02:01:17;7.10;99.90
48836;DHT22;62581;47.342;7.908;2022-11-20T02:03:46;7.10;99.90
48836;DHT22;62581;47.342;7.908;2022-11-20T02:06:16;7.20;99.90
48836;DHT22;62581;47.342;7.908;2022-11-20T02:08:50;7.20;99.90
48836;DHT22;62581;47.342;7.908;2022-11-20T02:11:26;7.20;99.90
48836;DHT22;62581;47.342;7.908;2022-11-20T02:13:56;7.30;99.90
48836;DHT22;62581;47.342;7.908;2022-11-20T02:16:26;7.20;99.90
48836;DHT22;62581;47.342;7.908;2022-11-20T02:18:54;7.30;99.90
48836;DHT22;62581;47.342;7.908;2022-11-20T02:21:24;7.30;99.90
48836;DHT22;62581;47.342;7.908;2022-11-20T02:23:59;7.30;99.90
48836;DHT22;62581;47.342;7.908;2022-11-20T02:26:27;7.30;99.90
48836;DHT22;62581;47.342;7.908;2022-11-20T02:28:58;7.30;99.90
48836;DHT22;62581;47.342;7.908;2022-11-20T02:31:33;7.30;99.90
48836;DHT22;62581;47.342;7.908;2022-11-20T02:34:01;7.30;99.90
48836;DHT22;62581;47.342;7.908;2022-11-20T02:36:28;7.30;99.90
48836;DHT22;62581;47.342;7.908;2022-11-20T02:38:56;7.20;99.90
48836;DHT22;62581;47.342;7.908;2022-11-20T02:44:22;7.10;99.90
48836;DHT22;62581;47.342;7.908;2022-11-20T02:46:49;7.10;99.90
48836;DHT22;62581;47.342;7.908;2022-11-20T02:49:19;7.10;99.90
48836;DHT22;62581;47.342;7.908;2022-11-20T02:51:46;7.00;99.90
48836;DHT22;62581;47.342;7.908;2022-11-20T02:54:12;7.00;99.90
48836;DHT22;62581;47.342;7.908;2022-11-20T02:56:42;7.10;99.90
48836;DHT22;62581;47.342;7.908;2022-11-20T02:59:19;6.90;99.90
48836;DHT22;62581;47.342;7.908;2022-11-20T03:01:49;7.10;99.90
48836;DHT22;62581;47.342;7.908;2022-11-20T03:04:16;7.00;99.90
48836;DHT22;62581;47.342;7.908;2022-11-20T03:06:45;7.00;99.90
48836;DHT22;62581;47.342;7.908;2022-11-20T03:09:14;7.00;99.90
48836;DHT22;62581;47.342;7.908;2022-11-20T03:11:46;6.90;99.90
48836;DHT22;62581;47.342;7.908;2022-11-20T03:14:17;6.90;99.90
48836;DHT22;62581;47.342;7.908;2022-11-20T03:16:48;6.90;99.90
48836;DHT22;62581;47.342;7.908;2022-11-20T03:19:20;6.90;99.90
48836;DHT22;62581;47.342;7.908;2022-11-20T03:21:47;6.80;99.90
48836;DHT22;62581;47.342;7.908;2022-11-20T03:24:14;6.80;99.90
48836;DHT22;62581;47.342;7.908;2022-11-20T03:26:40;6.90;99.90
48836;DHT22;62581;47.342;7.908;2022-11-20T03:29:09;6.80;99.90
48836;DHT22;62581;47.342;7.908;2022-11-20T03:31:36;6.70;99.90
48836;DHT22;62581;47.342;7.908;2022-11-20T03:34:07;6.70;99.90
48836;DHT22;62581;47.342;7.908;2022-11-20T03:36:37;6.80;99.90
48836;DHT22;62581;47.342;7.908;2022-11-20T03:41:51;6.90;99.90
48836;DHT22;62581;47.342;7.908;2022-11-20T03:44:27;6.90;99.90
48836;DHT22;62581;47.342;7.908;2022-11-20T03:47:02;6.90;99.90
48836;DHT22;62581;47.342;7.908;2022-11-20T03:49:36;6.90;99.90
48836;DHT22;62581;47.342;7.908;2022-11-20T03:52:04;6.90;99.90
48836;DHT22;62581;47.342;7.908;2022-11-20T03:54:34;6.90;99.90
48836;DHT22;62581;47.342;7.908;2022-11-20T03:57:15;7.00;99.90
48836;DHT22;62581;47.342;7.908;2022-11-20T03:59:41;6.90;99.90
48836;DHT22;62581;47.342;7.908;2022-11-20T04:02:11;6.90;99.90
48836;DHT22;62581;47.342;7.908;2022-11-20T04:04:39;7.00;99.90
48836;DHT22;62581;47.342;7.908;2022-11-20T04:07:11;7.00;99.90
48836;DHT22;62581;47.342;7.908;2022-11-20T04:09:44;7.00;99.90
48836;DHT22;62581;47.342;7.908;2022-11-20T04:12:13;7.00;99.90
48836;DHT22;62581;47.342;7.908;2022-11-20T04:14:40;7.00;99.90
48836;DHT22;62581;47.342;7.908;2022-11-20T04:17:11;7.00;99.90
48836;DHT22;62581;47.342;7.908;2022-11-20T04:19:38;7.00;99.90
48836;DHT22;62581;47.342;7.908;2022-11-20T04:22:06;7.00;99.90
48836;DHT22;62581;47.342;7.908;2022-11-20T04:24:37;7.00;99.90
48836;DHT22;62581;47.342;7.908;2022-11-20T04:27:04;7.00;99.90
48836;DHT22;62581;47.342;7.908;2022-11-20T04:29:31;7.00;99.90
48836;DHT22;62581;47.342;7.908;2022-11-20T04:32:00;7.00;99.90
48836;DHT22;62581;47.342;7.908;2022-11-20T04:34:31;7.00;99.90
48836;DHT22;62581;47.342;7.908;2022-11-20T04:37:02;7.10;99.90
48836;DHT22;62581;47.342;7.908;2022-11-20T04:39:33;7.10;99.90
48836;DHT22;62581;47.342;7.908;2022-11-20T04:42:00;7.10;99.90
48836;DHT22;62581;47.342;7.908;2022-11-20T04:44:44;7.10;99.90
48836;DHT22;62581;47.342;7.908;2022-11-20T04:47:11;7.00;99.90
48836;DHT22;62581;47.342;7.908;2022-11-20T04:49:40;7.00;99.90
48836;DHT22;62581;47.342;7.908;2022-11-20T04:52:08;7.00;99.90
48836;DHT22;62581;47.342;7.908;2022-11-20T04:54:55;7.10;99.90
48836;DHT22;62581;47.342;7.908;2022-11-20T04:57:35;7.10;99.90
48836;DHT22;62581;47.342;7.908;2022-11-20T05:00:06;7.10;99.90
48836;DHT22;62581;47.342;7.908;2022-11-20T05:02:36;7.10;99.90
48836;DHT22;62581;47.342;7.908;2022-11-20T05:05:04;7.00;99.90
48836;DHT22;62581;47.342;7.908;2022-11-20T05:07:30;7.00;99.90
48836;DHT22;62581;47.342;7.908;2022-11-20T05:09:59;7.00;99.90
48836;DHT22;62581;47.342;7.908;2022-11-20T05:12:26;7.10;99.90
48836;DHT22;62581;47.342;7.908;2022-11-20T05:14:54;7.10;99.90
48836;DHT22;62581;47.342;7.908;2022-11-20T05:17:29;7.10;99.90
48836;DHT22;62581;47.342;7.908;2022-11-20T05:19:58;7.00;99.90
48836;DHT22;62581;47.342;7.908;2022-11-20T05:22:30;7.10;99.90
48836;DHT22;62581;47.342;7.908;2022-11-20T05:24:56;7.10;99.90
48836;DHT22;62581;47.342;7.908;2022-11-20T05:27:25;7.10;99.90
48836;DHT22;62581;47.342;7.908;2022-11-20T05:29:51;7.10;99.90
48836;DHT22;62581;47.342;7.908;2022-11-20T05:32:18;7.20;99.90
48836;DHT22;62581;47.342;7.908;2022-11-20T05:34:45;7.10;99.90
48836;DHT22;62581;47.342;7.908;2022-11-20T05:37:12;7.20;99.90
48836;DHT22;62581;47.342;7.908;2022-11-20T05:39:53;7.20;99.90
48836;DHT22;62581;47.342;7.908;2022-11-20T05:42:29;7.10;99.90
48836;DHT22;62581;47.342;7.908;2022-11-20T05:45:09;7.10;99.90
48836;DHT22;62581;47.342;7.908;2022-11-20T05:47:36;7.10;99.90
48836;DHT22;62581;47.342;7.908;2022-11-20T05:50:06;7.10;99.90
48836;DHT22;62581;47.342;7.908;2022-11-20T05:52:33;7.10;99.90
48836;DHT22;62581;47.342;7.908;2022-11-20T05:55:00;7.20;99.90
48836;DHT22;62581;47.342;7.908;2022-11-20T05:57:28;7.10;99.90
48836;DHT22;62581;47.342;7.908;2022-11-20T05:59:55;7.10;99.90
48836;DHT22;62581;47.342;7.908;2022-11-20T06:02:22;7.00;99.90
48836;DHT22;62581;47.342;7.908;2022-11-20T06:04:54;7.00;99.90
48836;DHT22;62581;47.342;7.908;2022-11-20T06:07:21;6.90;99.90
48836;DHT22;62581;47.342;7.908;2022-11-20T06:09:49;6.90;99.90
48836;DHT22;62581;47.342;7.908;2022-11-20T06:12:16;6.90;99.90
48836;DHT22;62581;47.342;7.908;2022-11-20T06:14:47;6.90;99.90
48836;DHT22;62581;47.342;7.908;2022-11-20T06:17:14;7.00;99.90
48836;DHT22;62581;47.342;7.908;2022-11-20T06:19:41;7.00;99.90
48836;DHT22;62581;47.342;7.908;2022-11-20T06:22:10;7.00;99.90
48836;DHT22;62581;47.342;7.908;2022-11-20T06:24:41;7.00;99.90
48836;DHT22;62581;47.342;7.908;2022-11-20T06:27:23;7.10;99.90
48836;DHT22;62581;47.342;7.908;2022-11-20T06:29:54;7.10;99.90
48836;DHT22;62581;47.342;7.908;2022-11-20T06:32:23;7.10;99.90
48836;DHT22;62581;47.342;7.908;2022-11-20T06:34:53;7.20;99.90
48836;DHT22;62581;47.342;7.908;2022-11-20T06:37:19;7.10;99.90
48836;DHT22;62581;47.342;7.908;2022-11-20T06:39:46;7.10;99.90
48836;DHT22;62581;47.342;7.908;2022-11-20T06:42:13;7.10;99.90
48836;DHT22;62581;47.342;7.908;2022-11-20T06:44:40;7.10;99.90
48836;DHT22;62581;47.342;7.908;2022-11-20T06:47:08;7.10;99.90
48836;DHT22;62581;47.342;7.908;2022-11-20T06:49:38;7.10;99.90
48836;DHT22;62581;47.342;7.908;2022-11-20T06:52:09;7.20;99.90
48836;DHT22;62581;47.342;7.908;2022-11-20T06:54:35;7.20;99.90
48836;DHT22;62581;47.342;7.908;2022-11-20T06:57:07;7.20;99.90
48836;DHT22;62581;47.342;7.908;2022-11-20T06:59:34;7.10;99.90
48836;DHT22;62581;47.342;7.908;2022-11-20T07:02:03;7.20;99.90
48836;DHT22;62581;47.342;7.908;2022-11-20T07:04:33;7.20;99.90
48836;DHT22;62581;47.342;7.908;2022-11-20T07:07:00;7.10;99.90
48836;DHT22;62581;47.342;7.908;2022-11-20T07:09:33;7.20;99.90
48836;DHT22;62581;47.342;7.908;2022-11-20T07:12:03;7.20;99.90
48836;DHT22;62581;47.342;7.908;2022-11-20T07:14:34;7.10;99.90
48836;DHT22;62581;47.342;7.908;2022-11-20T07:17:05;7.10;99.90
48836;DHT22;62581;47.342;7.908;2022-11-20T07:19:33;7.00;99.90
48836;DHT22;62581;47.342;7.908;2022-11-20T07:22:05;7.10;99.90
48836;DHT22;62581;47.342;7.908;2022-11-20T07:24:32;7.10;99.90
48836;DHT22;62581;47.342;7.908;2022-11-20T07:27:03;7.10;99.90
48836;DHT22;62581;47.342;7.908;2022-11-20T07:29:30;7.10;99.90
48836;DHT22;62581;47.342;7.908;2022-11-20T07:31:57;7.10;99.90
48836;DHT22;62581;47.342;7.908;2022-11-20T07:34:24;7.20;99.90
48836;DHT22;62581;47.342;7.908;2022-11-20T07:36:52;7.20;99.90
48836;DHT22;62581;47.342;7.908;2022-11-20T07:39:19;7.20;99.90
48836;DHT22;62581;47.342;7.908;2022-11-20T07:41:46;7.30;99.90
48836;DHT22;62581;47.342;7.908;2022-11-20T07:44:13;7.30;99.90
48836;DHT22;62581;47.342;7.908;2022-11-20T07:46:39;7.30;99.90
48836;DHT22;62581;47.342;7.908;2022-11-20T07:49:06;7.30;99.90
48836;DHT22;62581;47.342;7.908;2022-11-20T07:51:33;7.30;99.90
48836;DHT22;62581;47.342;7.908;2022-11-20T07:54:01;7.30;99.90
48836;DHT22;62581;47.342;7.908;2022-11-20T07:56:28;7.40;99.90
48836;DHT22;62581;47.342;7.908;2022-11-20T07:58:55;7.40;99.90
48836;DHT22;62581;47.342;7.908;2022-11-20T08:01:22;7.30;99.90
48836;DHT22;62581;47.342;7.908;2022-11-20T08:03:52;7.40;99.90
48836;DHT22;62581;47.342;7.908;2022-11-20T08:06:18;7.30;99.90
48836;DHT22;62581;47.342;7.908;2022-11-20T08:08:50;7.30;99.90
48836;DHT22;62581;47.342;7.908;2022-11-20T08:11:20;7.30;99.90
48836;DHT22;62581;47.342;7.908;2022-11-20T08:14:06;7.40;99.90
48836;DHT22;62581;47.342;7.908;2022-11-20T08:16:40;7.50;99.90
48836;DHT22;62581;47.342;7.908;2022-11-20T08:19:10;7.60;99.90
48836;DHT22;62581;47.342;7.908;2022-11-20T08:24:18;7.70;99.90
48836;DHT22;62581;47.342;7.908;2022-11-20T08:26:49;7.70;99.90
48836;DHT22;62581;47.342;7.908;2022-11-20T08:29:46;7.80;99.90
48836;DHT22;62581;47.342;7.908;2022-11-20T08:32:05;7.80;99.90
48836;DHT22;62581;47.342;7.908;2022-11-20T08:34:32;7.80;99.90
48836;DHT22;62581;47.342;7.908;2022-11-20T08:37:00;7.80;99.90
48836;DHT22;62581;47.342;7.908;2022-11-20T08:39:30;7.90;99.90
48836;DHT22;62581;47.342;7.908;2022-11-20T08:41:58;7.90;99.90
48836;DHT22;62581;47.342;7.908;2022-11-20T08:44:25;7.90;99.90
48836;DHT22;62581;47.342;7.908;2022-11-20T08:46:54;7.90;99.90
48836;DHT22;62581;47.342;7.908;2022-11-20T08:49:22;8.00;99.90
48836;DHT22;62581;47.342;7.908;2022-11-20T08:51:52;8.10;99.90
48836;DHT22;62581;47.342;7.908;2022-11-20T08:54:23;8.10;99.90
48836;DHT22;62581;47.342;7.908;2022-11-20T08:57:09;8.10;99.90
48836;DHT22;62581;47.342;7.908;2022-11-20T08:59:36;8.10;99.90
48836;DHT22;62581;47.342;7.908;2022-11-20T09:02:03;8.20;99.90
48836;DHT22;62581;47.342;7.908;2022-11-20T09:04:33;8.30;99.90
48836;DHT22;62581;47.342;7.908;2022-11-20T09:07:02;8.40;99.90
48836;DHT22;62581;47.342;7.908;2022-11-20T09:09:29;8.50;99.90
48836;DHT22;62581;47.342;7.908;2022-11-20T09:11:56;8.60;99.90
48836;DHT22;62581;47.342;7.908;2022-11-20T09:14:31;8.60;99.90
48836;DHT22;62581;47.342;7.908;2022-11-20T09:16:59;8.60;99.90
48836;DHT22;62581;47.342;7.908;2022-11-20T09:19:26;8.70;99.90
48836;DHT22;62581;47.342;7.908;2022-11-20T09:21:56;8.70;99.90
48836;DHT22;62581;47.342;7.908;2022-11-20T09:24:27;8.70;99.90
48836;DHT22;62581;47.342;7.908;2022-11-20T09:26:56;8.80;99.90
48836;DHT22;62581;47.342;7.908;2022-11-20T09:29:23;8.80;99.90
48836;DHT22;62581;47.342;7.908;2022-11-20T09:31:51;8.90;99.90
48836;DHT22;62581;47.342;7.908;2022-11-20T09:34:18;8.90;99.90
48836;DHT22;62581;47.342;7.908;2022-11-20T09:36:48;9.00;99.90
48836;DHT22;62581;47.342;7.908;2022-11-20T09:39:14;9.00;99.90
48836;DHT22;62581;47.342;7.908;2022-11-20T09:41:49;9.00;99.90
48836;DHT22;62581;47.342;7.908;2022-11-20T09:44:24;8.90;99.90
48836;DHT22;62581;47.342;7.908;2022-11-20T09:46:57;8.80;99.90
48836;DHT22;62581;47.342;7.908;2022-11-20T09:52:16;8.90;99.90
48836;DHT22;62581;47.342;7.908;2022-11-20T09:54:47;8.80;99.90
48836;DHT22;62581;47.342;7.908;2022-11-20T09:57:17;8.80;99.90
48836;DHT22;62581;47.342;7.908;2022-11-20T09:59:45;8.80;99.90
48836;DHT22;62581;47.342;7.908;2022-11-20T10:02:25;8.80;99.90
48836;DHT22;62581;47.342;7.908;2022-11-20T10:04:55;8.90;99.90
48836;DHT22;62581;47.342;7.908;2022-11-20T10:07:24;9.00;99.90
48836;DHT22;62581;47.342;7.908;2022-11-20T10:09:55;9.10;99.90
48836;DHT22;62581;47.342;7.908;2022-11-20T10:12:24;9.40;99.90
48836;DHT22;62581;47.342;7.908;2022-11-20T10:14:58;9.60;99.90
48836;DHT22;62581;47.342;7.908;2022-11-20T10:17:46;9.80;99.90
48836;DHT22;62581;47.342;7.908;2022-11-20T10:20:17;9.80;99.90
48836;DHT22;62581;47.342;7.908;2022-11-20T10:22:49;10.00;99.90
48836;DHT22;62581;47.342;7.908;2022-11-20T10:25:20;10.00;99.90
48836;DHT22;62581;47.342;7.908;2022-11-20T10:30:40;10.00;99.90
48836;DHT22;62581;47.342;7.908;2022-11-20T10:33:26;10.10;99.90
48836;DHT22;62581;47.342;7.908;2022-11-20T10:36:06;10.20;99.90
48836;DHT22;62581;47.342;7.908;2022-11-20T10:38:36;10.20;99.90
48836;DHT22;62581;47.342;7.908;2022-11-20T10:41:04;10.10;99.90
48836;DHT22;62581;47.342;7.908;2022-11-20T10:43:50;10.20;99.90
48836;DHT22;62581;47.342;7.908;2022-11-20T10:46:22;10.30;99.90
48836;DHT22;62581;47.342;7.908;2022-11-20T10:48:51;10.40;99.90
48836;DHT22;62581;47.342;7.908;2022-11-20T10:52:00;10.40;99.90
48836;DHT22;62581;47.342;7.908;2022-11-20T10:57:15;10.30;99.90
48836;DHT22;62581;47.342;7.908;2022-11-20T10:59:55;10.10;99.90
48836;DHT22;62581;47.342;7.908;2022-11-20T11:02:31;10.10;99.90
48836;DHT22;62581;47.342;7.908;2022-11-20T11:05:00;10.20;99.90
48836;DHT22;62581;47.342;7.908;2022-11-20T11:07:33;10.40;99.90
48836;DHT22;62581;47.342;7.908;2022-11-20T11:10:05;10.40;99.90
48836;DHT22;62581;47.342;7.908;2022-11-20T11:12:42;10.40;99.90
48836;DHT22;62581;47.342;7.908;2022-11-20T11:15:11;10.60;99.90
48836;DHT22;62581;47.342;7.908;2022-11-20T11:17:45;10.70;99.90
48836;DHT22;62581;47.342;7.908;2022-11-20T11:20:17;10.70;99.90
48836;DHT22;62581;47.342;7.908;2022-11-20T11:22:44;10.50;99.90
48836;DHT22;62581;47.342;7.908;2022-11-20T11:25:19;10.50;99.90
48836;DHT22;62581;47.342;7.908;2022-11-20T11:27:46;10.50;99.90
48836;DHT22;62581;47.342;7.908;2022-11-20T11:30:14;10.40;99.90
48836;DHT22;62581;47.342;7.908;2022-11-20T11:32:41;10.40;99.90
48836;DHT22;62581;47.342;7.908;2022-11-20T11:35:22;10.40;99.90
48836;DHT22;62581;47.342;7.908;2022-11-20T11:37:49;10.40;99.90
48836;DHT22;62581;47.342;7.908;2022-11-20T11:40:17;10.20;99.90
48836;DHT22;62581;47.342;7.908;2022-11-20T11:42:46;10.10;99.90
48836;DHT22;62581;47.342;7.908;2022-11-20T11:45:15;10.00;99.90
48836;DHT22;62581;47.342;7.908;2022-11-20T11:47:43;9.90;99.90
48836;DHT22;62581;47.342;7.908;2022-11-20T11:50:15;9.90;99.90
48836;DHT22;62581;47.342;7.908;2022-11-20T11:52:44;9.90;99.90
48836;DHT22;62581;47.342;7.908;2022-11-20T11:55:12;10.00;99.90
48836;DHT22;62581;47.342;7.908;2022-11-20T11:57:41;10.00;99.90
48836;DHT22;62581;47.342;7.908;2022-11-20T12:00:13;10.00;99.90
48836;DHT22;62581;47.342;7.908;2022-11-20T12:02:45;10.00;99.90
48836;DHT22;62581;47.342;7.908;2022-11-20T12:05:17;10.10;99.90
48836;DHT22;62581;47.342;7.908;2022-11-20T12:07:52;10.20;99.90
48836;DHT22;62581;47.342;7.908;2022-11-20T12:10:22;10.40;99.90
48836;DHT22;62581;47.342;7.908;2022-11-20T12:12:51;10.80;99.90
48836;DHT22;62581;47.342;7.908;2022-11-20T12:15:24;11.20;99.90
48836;DHT22;62581;47.342;7.908;2022-11-20T12:17:52;11.70;99.90
48836;DHT22;62581;47.342;7.908;2022-11-20T12:20:21;12.60;99.90
48836;DHT22;62581;47.342;7.908;2022-11-20T12:22:54;13.30;99.90
48836;DHT22;62581;47.342;7.908;2022-11-20T12:25:24;13.80;99.90
48836;DHT22;62581;47.342;7.908;2022-11-20T12:27:59;14.20;99.90
48836;DHT22;62581;47.342;7.908;2022-11-20T12:30:30;14.50;99.90
48836;DHT22;62581;47.342;7.908;2022-11-20T12:33:04;14.60;99.90
48836;DHT22;62581;47.342;7.908;2022-11-20T12:35:37;14.90;99.90
48836;DHT22;62581;47.342;7.908;2022-11-20T12:38:16;15.00;99.90
48836;DHT22;62581;47.342;7.908;2022-11-20T12:40:49;15.20;99.90
48836;DHT22;62581;47.342;7.908;2022-11-20T12:43:20;15.50;99.90
48836;DHT22;62581;47.342;7.908;2022-11-20T12:46:14;15.40;99.90
48836;DHT22;62581;47.342;7.908;2022-11-20T12:48:59;15.10;99.90
48836;DHT22;62581;47.342;7.908;2022-11-20T12:57:03;14.30;99.90
48836;DHT22;62581;47.342;7.908;2022-11-20T12:59:46;13.80;99.90
48836;DHT22;62581;47.342;7.908;2022-11-20T13:02:18;14.00;99.90
48836;DHT22;62581;47.342;7.908;2022-11-20T13:04:52;14.30;99.90
48836;DHT22;62581;47.342;7.908;2022-11-20T13:07:22;14.80;99.90
48836;DHT22;62581;47.342;7.908;2022-11-20T13:09:50;15.30;99.90
48836;DHT22;62581;47.342;7.908;2022-11-20T13:12:20;15.30;99.90
48836;DHT22;62581;47.342;7.908;2022-11-20T13:14:51;15.30;99.90
48836;DHT22;62581;47.342;7.908;2022-11-20T13:17:22;15.50;99.90
48836;DHT22;62581;47.342;7.908;2022-11-20T13:19:55;14.40;99.90
48836;DHT22;62581;47.342;7.908;2022-11-20T13:22:24;14.70;99.90
48836;DHT22;62581;47.342;7.908;2022-11-20T13:24:52;15.20;99.90
48836;DHT22;62581;47.342;7.908;2022-11-20T13:27:20;15.60;99.70
48836;DHT22;62581;47.342;7.908;2022-11-20T13:32:30;16.40;97.10
48836;DHT22;62581;47.342;7.908;2022-11-20T13:34:58;16.40;97.20
48836;DHT22;62581;47.342;7.908;2022-11-20T13:37:26;16.30;94.80
48836;DHT22;62581;47.342;7.908;2022-11-20T13:40:04;15.80;95.30
48836;DHT22;62581;47.342;7.908;2022-11-20T13:42:34;15.50;94.70
48836;DHT22;62581;47.342;7.908;2022-11-20T13:45:02;15.30;95.20
48836;DHT22;62581;47.342;7.908;2022-11-20T13:47:34;15.30;94.50
48836;DHT22;62581;47.342;7.908;2022-11-20T13:50:02;15.00;95.00
48836;DHT22;62581;47.342;7.908;2022-11-20T13:52:35;15.10;95.60
48836;DHT22;62581;47.342;7.908;2022-11-20T13:55:06;15.00;95.10
48836;DHT22;62581;47.342;7.908;2022-11-20T14:00:23;15.00;95.60
48836;DHT22;62581;47.342;7.908;2022-11-20T14:02:53;14.90;95.50
48836;DHT22;62581;47.342;7.908;2022-11-20T14:05:27;15.10;95.80
48836;DHT22;62581;47.342;7.908;2022-11-20T14:07:55;15.00;95.60
48836;DHT22;62581;47.342;7.908;2022-11-20T14:10:23;14.50;96.00
48836;DHT22;62581;47.342;7.908;2022-11-20T14:12:51;14.50;96.70
48836;DHT22;62581;47.342;7.908;2022-11-20T14:15:26;15.10;96.00
48836;DHT22;62581;47.342;7.908;2022-11-20T14:17:53;15.80;95.60
48836;DHT22;62581;47.342;7.908;2022-11-20T14:20:23;16.70;94.40
48836;DHT22;62581;47.342;7.908;2022-11-20T14:22:53;17.50;93.20
48836;DHT22;62581;47.342;7.908;2022-11-20T14:25:20;17.40;92.60
48836;DHT22;62581;47.342;7.908;2022-11-20T14:27:51;17.60;92.50
48836;DHT22;62581;47.342;7.908;2022-11-20T14:30:22;17.30;92.80
48836;DHT22;62581;47.342;7.908;2022-11-20T14:32:51;17.10;92.50
48836;DHT22;62581;47.342;7.908;2022-11-20T14:35:19;16.60;93.10
48836;DHT22;62581;47.342;7.908;2022-11-20T14:37:47;16.00;93.60
48836;DHT22;62581;47.342;7.908;2022-11-20T14:40:24;15.80;94.60
48836;DHT22;62581;47.342;7.908;2022-11-20T14:42:51;15.50;95.10
48836;DHT22;62581;47.342;7.908;2022-11-20T14:45:18;15.00;95.70
48836;DHT22;62581;47.342;7.908;2022-11-20T14:47:45;14.50;96.50
48836;DHT22;62581;47.342;7.908;2022-11-20T14:50:16;14.00;97.80
48836;DHT22;62581;47.342;7.908;2022-11-20T14:52:49;13.50;98.10
48836;DHT22;62581;47.342;7.908;2022-11-20T14:55:24;13.20;99.20
48836;DHT22;62581;47.342;7.908;2022-11-20T14:57:54;13.00;99.90
48836;DHT22;62581;47.342;7.908;2022-11-20T15:00:21;12.80;99.90
48836;DHT22;62581;47.342;7.908;2022-11-20T15:02:49;12.60;99.90
48836;DHT22;62581;47.342;7.908;2022-11-20T15:05:18;12.50;99.90
48836;DHT22;62581;47.342;7.908;2022-11-20T15:07:46;12.40;99.90
48836;DHT22;62581;47.342;7.908;2022-11-20T15:10:19;12.40;99.90
48836;DHT22;62581;47.342;7.908;2022-11-20T15:12:47;12.30;99.90
48836;DHT22;62581;47.342;7.908;2022-11-20T15:15:15;12.00;99.90
48836;DHT22;62581;47.342;7.908;2022-11-20T15:17:44;11.80;99.90
48836;DHT22;62581;47.342;7.908;2022-11-20T15:20:11;11.70;99.90
48836;DHT22;62581;47.342;7.908;2022-11-20T15:22:45;11.60;99.90
48836;DHT22;62581;47.342;7.908;2022-11-20T15:25:13;11.60;99.90
48836;DHT22;62581;47.342;7.908;2022-11-20T15:27:42;11.50;99.90
48836;DHT22;62581;47.342;7.908;2022-11-20T15:30:14;11.40;99.90
48836;DHT22;62581;47.342;7.908;2022-11-20T15:32:45;11.30;99.90
48836;DHT22;62581;47.342;7.908;2022-11-20T15:35:17;11.30;99.90
48836;DHT22;62581;47.342;7.908;2022-11-20T15:37:46;11.20;99.90
48836;DHT22;62581;47.342;7.908;2022-11-20T15:40:12;11.10;99.90
48836;DHT22;62581;47.342;7.908;2022-11-20T15:42:39;11.10;99.90
48836;DHT22;62581;47.342;7.908;2022-11-20T15:45:28;11.00;99.90
48836;DHT22;62581;47.342;7.908;2022-11-20T15:47:59;10.90;99.90
48836;DHT22;62581;47.342;7.908;2022-11-20T15:50:33;10.90;99.90
48836;DHT22;62581;47.342;7.908;2022-11-20T15:53:02;10.80;99.90
48836;DHT22;62581;47.342;7.908;2022-11-20T15:55:28;10.80;99.90
48836;DHT22;62581;47.342;7.908;2022-11-20T15:57:56;10.70;99.90
48836;DHT22;62581;47.342;7.908;2022-11-20T16:00:26;10.70;99.90
48836;DHT22;62581;47.342;7.908;2022-11-20T16:02:53;10.60;99.90
48836;DHT22;62581;47.342;7.908;2022-11-20T16:05:19;10.60;99.90
48836;DHT22;62581;47.342;7.908;2022-11-20T16:07:48;10.50;99.90
48836;DHT22;62581;47.342;7.908;2022-11-20T16:10:16;10.50;99.90
48836;DHT22;62581;47.342;7.908;2022-11-20T16:12:43;10.50;99.90
48836;DHT22;62581;47.342;7.908;2022-11-20T16:15:28;10.40;99.90
48836;DHT22;62581;47.342;7.908;2022-11-20T16:18:14;10.40;99.90
48836;DHT22;62581;47.342;7.908;2022-11-20T16:20:41;10.30;99.90
48836;DHT22;62581;47.342;7.908;2022-11-20T16:23:08;10.30;99.90
48836;DHT22;62581;47.342;7.908;2022-11-20T16:25:37;10.20;99.90
48836;DHT22;62581;47.342;7.908;2022-11-20T16:28:04;10.10;99.90
48836;DHT22;62581;47.342;7.908;2022-11-20T16:30:31;10.00;99.90